sensor_id;sensor_type;location;lat;lon;timestamp;temperature;humidity
6291;DHT22;3178;48.730;8.990;2022-10-23T00:01:24;11.20;99.90
6291;DHT22;3178;48.730;8.990;2022-10-23T00:03:55;11.10;99.90
6291;DHT22;3178;48.730;8.990;2022-10-23T00:06:22;11.10;99.90
6291;DHT22;3178;48.730;8.990;2022-10-23T00:08:48;11.10;99.90
6291;DHT22;3178;48.730;8.990;2022-10-23T00:11:17;11.00;99.90
6291;DHT22;3178;48.730;8.990;2022-10-23T00:13:44;11.00;99.90
6291;DHT22;3178;48.730;8.990;2022-10-23T00:16:09;11.00;99.90
6291;DHT22;3178;48.730;8.990;2022-10-23T00:18:36;11.00;99.90
6291;DHT22;3178;48.730;8.990;2022-10-23T00:21:03;11.00;99.90
6291;DHT22;3178;48.730;8.990;2022-10-23T00:23:29;10.90;99.90
6291;DHT22;3178;48.730;8.990;2022-10-23T00:25:55;10.90;99.90
6291;DHT22;3178;48.730;8.990;2022-10-23T00:28:20;10.90;99.90
6291;DHT22;3178;48.730;8.990;2022-10-23T00:30:46;10.90;99.90
6291;DHT22;3178;48.730;8.990;2022-10-23T00:33:11;10.90;99.90
6291;DHT22;3178;48.730;8.990;2022-10-23T00:35:41;10.80;99.90
6291;DHT22;3178;48.730;8.990;2022-10-23T00:38:08;10.80;99.90
6291;DHT22;3178;48.730;8.990;2022-10-23T00:40:35;10.80;99.90
6291;DHT22;3178;48.730;8.990;2022-10-23T00:43:01;10.80;99.90
6291;DHT22;3178;48.730;8.990;2022-10-23T00:45:28;10.80;99.90
6291;DHT22;3178;48.730;8.990;2022-10-23T00:48:00;10.70;99.90
6291;DHT22;3178;48.730;8.990;2022-10-23T00:50:28;10.80;99.90
6291;DHT22;3178;48.730;8.990;2022-10-23T00:52:55;10.70;99.90
6291;DHT22;3178;48.730;8.990;2022-10-23T00:55:22;10.80;99.90
6291;DHT22;3178;48.730;8.990;2022-10-23T00:57:50;10.80;99.90
6291;DHT22;3178;48.730;8.990;2022-10-23T01:02:47;10.80;99.90
6291;DHT22;3178;48.730;8.990;2022-10-23T01:05:13;10.80;99.90
6291;DHT22;3178;48.730;8.990;2022-10-23T01:11:47;10.80;99.90
6291;DHT22;3178;48.730;8.990;2022-10-23T01:16:28;10.70;99.90
6291;DHT22;3178;48.730;8.990;2022-10-23T01:22:18;10.70;99.90
6291;DHT22;3178;48.730;8.990;2022-10-23T01:24:56;10.70;99.90
6291;DHT22;3178;48.730;8.990;2022-10-23T01:27:25;10.70;99.90
6291;DHT22;3178;48.730;8.990;2022-10-23T01:30:07;10.70;99.90
6291;DHT22;3178;48.730;8.990;2022-10-23T01:32:55;10.60;99.90
6291;DHT22;3178;48.730;8.990;2022-10-23T01:38:02;10.60;99.90
6291;DHT22;3178;48.730;8.990;2022-10-23T01:40:46;10.60;99.90
6291;DHT22;3178;48.730;8.990;2022-10-23T01:43:19;10.60;99.90
6291;DHT22;3178;48.730;8.990;2022-10-23T01:46:11;10.60;99.90
6291;DHT22;3178;48.730;8.990;2022-10-23T01:48:36;10.60;99.90
6291;DHT22;3178;48.730;8.990;2022-10-23T01:51:07;10.70;99.90
6291;DHT22;3178;48.730;8.990;2022-10-23T01:53:36;10.60;99.90
6291;DHT22;3178;48.730;8.990;2022-10-23T01:56:11;10.60;99.90
6291;DHT22;3178;48.730;8.990;2022-10-23T01:58:39;10.60;99.90
6291;DHT22;3178;48.730;8.990;2022-10-23T02:01:07;10.60;99.90
6291;DHT22;3178;48.730;8.990;2022-10-23T02:03:35;10.60;99.90
6291;DHT22;3178;48.730;8.990;2022-10-23T02:06:01;10.60;99.90
6291;DHT22;3178;48.730;8.990;2022-10-23T02:08:27;10.50;99.90
6291;DHT22;3178;48.730;8.990;2022-10-23T02:19:23;10.40;99.90
6291;DHT22;3178;48.730;8.990;2022-10-23T02:22:07;10.40;99.90
6291;DHT22;3178;48.730;8.990;2022-10-23T02:24:53;10.40;99.90
6291;DHT22;3178;48.730;8.990;2022-10-23T02:30:09;10.40;99.90
6291;DHT22;3178;48.730;8.990;2022-10-23T02:32:39;10.50;99.90
6291;DHT22;3178;48.730;8.990;2022-10-23T02:35:06;10.40;99.90
6291;DHT22;3178;48.730;8.990;2022-10-23T02:37:32;10.40;99.90
6291;DHT22;3178;48.730;8.990;2022-10-23T02:39:58;10.50;99.90
6291;DHT22;3178;48.730;8.990;2022-10-23T02:42:40;10.50;99.90
6291;DHT22;3178;48.730;8.990;2022-10-23T02:45:24;10.50;99.90
6291;DHT22;3178;48.730;8.990;2022-10-23T02:48:12;10.50;99.90
6291;DHT22;3178;48.730;8.990;2022-10-23T02:51:00;10.40;99.90
6291;DHT22;3178;48.730;8.990;2022-10-23T02:53:38;10.40;99.90
6291;DHT22;3178;48.730;8.990;2022-10-23T03:01:30;10.50;99.90
6291;DHT22;3178;48.730;8.990;2022-10-23T03:04:01;10.40;99.90
6291;DHT22;3178;48.730;8.990;2022-10-23T03:06:27;10.50;99.90
6291;DHT22;3178;48.730;8.990;2022-10-23T03:08:57;10.50;99.90
6291;DHT22;3178;48.730;8.990;2022-10-23T03:11:23;10.50;99.90
6291;DHT22;3178;48.730;8.990;2022-10-23T03:13:49;10.50;99.90
6291;DHT22;3178;48.730;8.990;2022-10-23T03:16:15;10.40;99.90
6291;DHT22;3178;48.730;8.990;2022-10-23T03:18:40;10.40;99.90
6291;DHT22;3178;48.730;8.990;2022-10-23T03:21:06;10.40;99.90
6291;DHT22;3178;48.730;8.990;2022-10-23T03:23:32;10.40;99.90
6291;DHT22;3178;48.730;8.990;2022-10-23T03:25:57;10.40;99.90
6291;DHT22;3178;48.730;8.990;2022-10-23T03:28:23;10.40;99.90
6291;DHT22;3178;48.730;8.990;2022-10-23T03:30:48;10.40;99.90
6291;DHT22;3178;48.730;8.990;2022-10-23T03:33:14;10.40;99.90
6291;DHT22;3178;48.730;8.990;2022-10-23T03:35:39;10.50;99.90
6291;DHT22;3178;48.730;8.990;2022-10-23T03:38:05;10.50;99.90
6291;DHT22;3178;48.730;8.990;2022-10-23T03:40:31;10.50;99.90
6291;DHT22;3178;48.730;8.990;2022-10-23T03:42:56;10.50;99.90
6291;DHT22;3178;48.730;8.990;2022-10-23T03:45:22;10.60;99.90
6291;DHT22;3178;48.730;8.990;2022-10-23T03:47:47;10.60;99.90
6291;DHT22;3178;48.730;8.990;2022-10-23T03:50:15;10.60;99.90
6291;DHT22;3178;48.730;8.990;2022-10-23T03:52:40;10.60;99.90
6291;DHT22;3178;48.730;8.990;2022-10-23T03:55:07;10.60;99.90
6291;DHT22;3178;48.730;8.990;2022-10-23T03:57:32;10.60;99.90
6291;DHT22;3178;48.730;8.990;2022-10-23T03:59:58;10.60;99.90
6291;DHT22;3178;48.730;8.990;2022-10-23T04:02:23;10.60;99.90
6291;DHT22;3178;48.730;8.990;2022-10-23T04:04:49;10.60;99.90
6291;DHT22;3178;48.730;8.990;2022-10-23T04:07:14;10.60;99.90
6291;DHT22;3178;48.730;8.990;2022-10-23T04:09:40;10.60;99.90
6291;DHT22;3178;48.730;8.990;2022-10-23T04:12:06;10.60;99.90
6291;DHT22;3178;48.730;8.990;2022-10-23T04:14:32;10.60;99.90
6291;DHT22;3178;48.730;8.990;2022-10-23T04:16:57;10.60;99.90
6291;DHT22;3178;48.730;8.990;2022-10-23T04:19:23;10.60;99.90
6291;DHT22;3178;48.730;8.990;2022-10-23T04:21:48;10.60;99.90
6291;DHT22;3178;48.730;8.990;2022-10-23T04:24:14;10.60;99.90
6291;DHT22;3178;48.730;8.990;2022-10-23T04:26:40;10.60;99.90
6291;DHT22;3178;48.730;8.990;2022-10-23T04:29:06;10.60;99.90
6291;DHT22;3178;48.730;8.990;2022-10-23T04:31:31;10.70;99.90
6291;DHT22;3178;48.730;8.990;2022-10-23T04:33:57;10.70;99.90
6291;DHT22;3178;48.730;8.990;2022-10-23T04:36:22;10.80;99.90
6291;DHT22;3178;48.730;8.990;2022-10-23T04:38:48;10.80;99.90
6291;DHT22;3178;48.730;8.990;2022-10-23T04:41:13;10.80;99.90
6291;DHT22;3178;48.730;8.990;2022-10-23T04:43:39;10.90;99.90
6291;DHT22;3178;48.730;8.990;2022-10-23T04:46:05;10.90;99.90
6291;DHT22;3178;48.730;8.990;2022-10-23T04:48:31;10.90;99.90
6291;DHT22;3178;48.730;8.990;2022-10-23T04:51:02;11.00;99.90
6291;DHT22;3178;48.730;8.990;2022-10-23T04:53:28;11.00;99.90
6291;DHT22;3178;48.730;8.990;2022-10-23T04:55:56;11.00;99.90
6291;DHT22;3178;48.730;8.990;2022-10-23T04:58:23;11.00;99.90
6291;DHT22;3178;48.730;8.990;2022-10-23T05:00:49;11.10;99.90
6291;DHT22;3178;48.730;8.990;2022-10-23T05:03:16;11.10;99.90
6291;DHT22;3178;48.730;8.990;2022-10-23T05:05:43;11.10;99.90
6291;DHT22;3178;48.730;8.990;2022-10-23T05:08:09;11.10;99.90
6291;DHT22;3178;48.730;8.990;2022-10-23T05:10:35;11.10;99.90
6291;DHT22;3178;48.730;8.990;2022-10-23T05:13:02;11.10;99.90
6291;DHT22;3178;48.730;8.990;2022-10-23T05:15:28;11.10;99.90
6291;DHT22;3178;48.730;8.990;2022-10-23T05:17:56;11.10;99.90
6291;DHT22;3178;48.730;8.990;2022-10-23T05:20:27;11.00;99.90
6291;DHT22;3178;48.730;8.990;2022-10-23T05:22:56;11.00;99.90
6291;DHT22;3178;48.730;8.990;2022-10-23T05:25:22;11.00;99.90
6291;DHT22;3178;48.730;8.990;2022-10-23T05:27:48;11.00;99.90
6291;DHT22;3178;48.730;8.990;2022-10-23T05:30:13;11.00;99.90
6291;DHT22;3178;48.730;8.990;2022-10-23T05:32:39;11.10;99.90
6291;DHT22;3178;48.730;8.990;2022-10-23T05:35:11;11.10;99.90
6291;DHT22;3178;48.730;8.990;2022-10-23T05:37:40;11.10;99.90
6291;DHT22;3178;48.730;8.990;2022-10-23T05:40:07;11.10;99.90
6291;DHT22;3178;48.730;8.990;2022-10-23T05:42:33;11.10;99.90
6291;DHT22;3178;48.730;8.990;2022-10-23T05:44:58;11.00;99.90
6291;DHT22;3178;48.730;8.990;2022-10-23T05:47:24;11.00;99.90
6291;DHT22;3178;48.730;8.990;2022-10-23T05:49:49;11.10;99.90
6291;DHT22;3178;48.730;8.990;2022-10-23T05:52:15;11.00;99.90
6291;DHT22;3178;48.730;8.990;2022-10-23T05:54:40;11.00;99.90
6291;DHT22;3178;48.730;8.990;2022-10-23T05:57:06;11.10;99.90
6291;DHT22;3178;48.730;8.990;2022-10-23T05:59:32;11.10;99.90
6291;DHT22;3178;48.730;8.990;2022-10-23T06:01:57;11.10;99.90
6291;DHT22;3178;48.730;8.990;2022-10-23T06:04:23;11.10;99.90
6291;DHT22;3178;48.730;8.990;2022-10-23T06:06:48;11.20;99.90
6291;DHT22;3178;48.730;8.990;2022-10-23T06:09:14;11.10;99.90
6291;DHT22;3178;48.730;8.990;2022-10-23T06:11:40;11.10;99.90
6291;DHT22;3178;48.730;8.990;2022-10-23T06:14:06;11.20;99.90
6291;DHT22;3178;48.730;8.990;2022-10-23T06:16:32;11.20;99.90
6291;DHT22;3178;48.730;8.990;2022-10-23T06:18:58;11.20;99.90
6291;DHT22;3178;48.730;8.990;2022-10-23T06:21:24;11.20;99.90
6291;DHT22;3178;48.730;8.990;2022-10-23T06:23:50;11.20;99.90
6291;DHT22;3178;48.730;8.990;2022-10-23T06:26:17;11.20;99.90
6291;DHT22;3178;48.730;8.990;2022-10-23T06:28:43;11.30;99.90
6291;DHT22;3178;48.730;8.990;2022-10-23T06:31:14;11.20;99.90
6291;DHT22;3178;48.730;8.990;2022-10-23T06:33:40;11.20;99.90
6291;DHT22;3178;48.730;8.990;2022-10-23T06:36:06;11.20;99.90
6291;DHT22;3178;48.730;8.990;2022-10-23T06:38:35;11.20;99.90
6291;DHT22;3178;48.730;8.990;2022-10-23T06:41:06;11.30;99.90
6291;DHT22;3178;48.730;8.990;2022-10-23T06:43:31;11.30;99.90
6291;DHT22;3178;48.730;8.990;2022-10-23T06:46:02;11.30;99.90
6291;DHT22;3178;48.730;8.990;2022-10-23T06:48:27;11.40;99.90
6291;DHT22;3178;48.730;8.990;2022-10-23T06:50:53;11.40;99.90
6291;DHT22;3178;48.730;8.990;2022-10-23T06:53:20;11.40;99.90
6291;DHT22;3178;48.730;8.990;2022-10-23T06:55:48;11.50;99.90
6291;DHT22;3178;48.730;8.990;2022-10-23T06:58:13;11.50;99.90
6291;DHT22;3178;48.730;8.990;2022-10-23T07:00:39;11.60;99.90
6291;DHT22;3178;48.730;8.990;2022-10-23T07:03:05;11.60;99.90
6291;DHT22;3178;48.730;8.990;2022-10-23T07:05:33;11.60;99.90
6291;DHT22;3178;48.730;8.990;2022-10-23T07:07:59;11.70;99.90
6291;DHT22;3178;48.730;8.990;2022-10-23T07:10:25;11.80;99.90
6291;DHT22;3178;48.730;8.990;2022-10-23T07:12:51;11.90;99.90
6291;DHT22;3178;48.730;8.990;2022-10-23T07:15:17;11.90;99.90
6291;DHT22;3178;48.730;8.990;2022-10-23T07:17:42;12.00;99.90
6291;DHT22;3178;48.730;8.990;2022-10-23T07:20:08;12.10;99.90
6291;DHT22;3178;48.730;8.990;2022-10-23T07:22:33;12.20;99.90
6291;DHT22;3178;48.730;8.990;2022-10-23T07:24:59;12.30;99.90
6291;DHT22;3178;48.730;8.990;2022-10-23T07:27:24;12.30;99.90
6291;DHT22;3178;48.730;8.990;2022-10-23T07:29:51;12.40;99.90
6291;DHT22;3178;48.730;8.990;2022-10-23T07:32:17;12.50;99.90
6291;DHT22;3178;48.730;8.990;2022-10-23T07:34:42;12.70;99.90
6291;DHT22;3178;48.730;8.990;2022-10-23T07:37:08;12.80;99.90
6291;DHT22;3178;48.730;8.990;2022-10-23T07:39:33;12.90;99.90
6291;DHT22;3178;48.730;8.990;2022-10-23T07:41:59;13.10;99.90
6291;DHT22;3178;48.730;8.990;2022-10-23T07:44:24;13.20;99.90
6291;DHT22;3178;48.730;8.990;2022-10-23T07:46:50;13.40;99.90
6291;DHT22;3178;48.730;8.990;2022-10-23T07:49:16;13.50;99.90
6291;DHT22;3178;48.730;8.990;2022-10-23T07:51:41;13.60;99.90
6291;DHT22;3178;48.730;8.990;2022-10-23T07:54:09;13.80;99.90
6291;DHT22;3178;48.730;8.990;2022-10-23T07:56:36;14.00;99.90
6291;DHT22;3178;48.730;8.990;2022-10-23T07:59:02;14.20;99.90
6291;DHT22;3178;48.730;8.990;2022-10-23T08:01:31;14.40;99.90
6291;DHT22;3178;48.730;8.990;2022-10-23T08:03:58;14.70;99.90
6291;DHT22;3178;48.730;8.990;2022-10-23T08:06:23;15.00;99.90
6291;DHT22;3178;48.730;8.990;2022-10-23T08:08:49;15.20;99.90
6291;DHT22;3178;48.730;8.990;2022-10-23T08:11:16;15.40;99.90
6291;DHT22;3178;48.730;8.990;2022-10-23T08:13:42;15.80;99.90
6291;DHT22;3178;48.730;8.990;2022-10-23T08:16:08;16.00;99.90
6291;DHT22;3178;48.730;8.990;2022-10-23T08:18:34;16.30;99.90
6291;DHT22;3178;48.730;8.990;2022-10-23T08:21:02;16.60;99.90
6291;DHT22;3178;48.730;8.990;2022-10-23T08:23:28;16.90;99.90
6291;DHT22;3178;48.730;8.990;2022-10-23T08:25:58;17.20;99.90
6291;DHT22;3178;48.730;8.990;2022-10-23T08:28:25;17.40;99.90
6291;DHT22;3178;48.730;8.990;2022-10-23T08:30:51;17.60;99.90
6291;DHT22;3178;48.730;8.990;2022-10-23T08:33:16;17.70;99.90
6291;DHT22;3178;48.730;8.990;2022-10-23T08:35:42;17.80;99.90
6291;DHT22;3178;48.730;8.990;2022-10-23T08:38:09;17.60;99.90
6291;DHT22;3178;48.730;8.990;2022-10-23T08:40:35;17.60;99.90
6291;DHT22;3178;48.730;8.990;2022-10-23T08:45:43;17.60;99.90
6291;DHT22;3178;48.730;8.990;2022-10-23T08:48:27;17.60;99.90
6291;DHT22;3178;48.730;8.990;2022-10-23T08:50:58;17.70;99.90
6291;DHT22;3178;48.730;8.990;2022-10-23T08:53:52;18.00;99.90
6291;DHT22;3178;48.730;8.990;2022-10-23T08:56:31;18.10;99.90
6291;DHT22;3178;48.730;8.990;2022-10-23T08:58:59;18.40;99.90
6291;DHT22;3178;48.730;8.990;2022-10-23T09:04:11;19.00;99.90
6291;DHT22;3178;48.730;8.990;2022-10-23T09:06:38;19.40;99.90
6291;DHT22;3178;48.730;8.990;2022-10-23T09:09:25;19.60;99.90
6291;DHT22;3178;48.730;8.990;2022-10-23T09:12:15;19.90;99.90
6291;DHT22;3178;48.730;8.990;2022-10-23T09:15:17;20.30;99.90
6291;DHT22;3178;48.730;8.990;2022-10-23T09:17:44;20.60;99.90
6291;DHT22;3178;48.730;8.990;2022-10-23T09:22:47;20.90;99.90
6291;DHT22;3178;48.730;8.990;2022-10-23T09:25:19;21.00;99.90
6291;DHT22;3178;48.730;8.990;2022-10-23T09:27:50;21.20;99.90
6291;DHT22;3178;48.730;8.990;2022-10-23T09:30:39;21.40;99.90
6291;DHT22;3178;48.730;8.990;2022-10-23T09:36:05;21.70;99.90
6291;DHT22;3178;48.730;8.990;2022-10-23T09:41:34;21.90;99.90
6291;DHT22;3178;48.730;8.990;2022-10-23T09:46:41;22.10;99.90
6291;DHT22;3178;48.730;8.990;2022-10-23T09:49:30;22.00;99.90
6291;DHT22;3178;48.730;8.990;2022-10-23T09:57:27;22.30;99.90
6291;DHT22;3178;48.730;8.990;2022-10-23T10:00:18;22.60;99.90
6291;DHT22;3178;48.730;8.990;2022-10-23T10:02:59;22.80;99.90
6291;DHT22;3178;48.730;8.990;2022-10-23T10:05:27;22.80;99.90
6291;DHT22;3178;48.730;8.990;2022-10-23T10:10:49;23.00;99.90
6291;DHT22;3178;48.730;8.990;2022-10-23T10:16:11;23.00;99.90
6291;DHT22;3178;48.730;8.990;2022-10-23T10:18:53;22.90;99.90
6291;DHT22;3178;48.730;8.990;2022-10-23T10:21:29;22.80;99.90
6291;DHT22;3178;48.730;8.990;2022-10-23T10:23:58;22.80;99.90
6291;DHT22;3178;48.730;8.990;2022-10-23T10:26:34;22.70;99.90
6291;DHT22;3178;48.730;8.990;2022-10-23T10:40:17;23.20;99.90
6291;DHT22;3178;48.730;8.990;2022-10-23T10:45:38;23.10;99.90
6291;DHT22;3178;48.730;8.990;2022-10-23T10:48:20;22.90;99.90
6291;DHT22;3178;48.730;8.990;2022-10-23T10:53:23;22.60;99.90
6291;DHT22;3178;48.730;8.990;2022-10-23T10:55:53;22.60;99.90
6291;DHT22;3178;48.730;8.990;2022-10-23T11:00:57;22.10;99.90
6291;DHT22;3178;48.730;8.990;2022-10-23T11:03:46;22.10;99.90
6291;DHT22;3178;48.730;8.990;2022-10-23T11:06:19;22.10;99.90
6291;DHT22;3178;48.730;8.990;2022-10-23T11:08:46;22.10;99.90
6291;DHT22;3178;48.730;8.990;2022-10-23T11:11:16;22.20;99.90
6291;DHT22;3178;48.730;8.990;2022-10-23T11:13:43;22.00;99.90
6291;DHT22;3178;48.730;8.990;2022-10-23T11:16:21;22.00;99.90
6291;DHT22;3178;48.730;8.990;2022-10-23T11:19:05;21.90;99.90
6291;DHT22;3178;48.730;8.990;2022-10-23T11:27:03;21.60;99.90
6291;DHT22;3178;48.730;8.990;2022-10-23T11:33:29;21.40;99.90
6291;DHT22;3178;48.730;8.990;2022-10-23T11:38:29;21.20;99.90
6291;DHT22;3178;48.730;8.990;2022-10-23T11:41:01;21.10;99.90
6291;DHT22;3178;48.730;8.990;2022-10-23T11:45:55;21.10;99.90
6291;DHT22;3178;48.730;8.990;2022-10-23T11:48:41;21.10;99.90
6291;DHT22;3178;48.730;8.990;2022-10-23T11:51:32;21.00;99.90
6291;DHT22;3178;48.730;8.990;2022-10-23T11:56:37;21.00;99.90
6291;DHT22;3178;48.730;8.990;2022-10-23T11:59:24;20.90;99.90
6291;DHT22;3178;48.730;8.990;2022-10-23T12:01:50;21.00;99.90
6291;DHT22;3178;48.730;8.990;2022-10-23T12:04:21;20.90;99.90
6291;DHT22;3178;48.730;8.990;2022-10-23T12:06:57;20.80;99.90
6291;DHT22;3178;48.730;8.990;2022-10-23T12:09:35;20.80;99.90
6291;DHT22;3178;48.730;8.990;2022-10-23T12:14:48;20.80;99.90
6291;DHT22;3178;48.730;8.990;2022-10-23T12:17:23;20.80;99.90
6291;DHT22;3178;48.730;8.990;2022-10-23T12:25:32;20.80;99.90
6291;DHT22;3178;48.730;8.990;2022-10-23T12:34:08;20.90;99.90
6291;DHT22;3178;48.730;8.990;2022-10-23T12:39:34;21.10;99.90
6291;DHT22;3178;48.730;8.990;2022-10-23T12:42:10;21.10;99.90
6291;DHT22;3178;48.730;8.990;2022-10-23T12:44:39;21.20;99.90
6291;DHT22;3178;48.730;8.990;2022-10-23T12:47:04;21.30;99.90
6291;DHT22;3178;48.730;8.990;2022-10-23T12:49:31;21.40;99.90
6291;DHT22;3178;48.730;8.990;2022-10-23T12:52:03;21.70;99.90
6291;DHT22;3178;48.730;8.990;2022-10-23T12:54:30;22.00;99.90
6291;DHT22;3178;48.730;8.990;2022-10-23T12:56:56;22.30;99.90
6291;DHT22;3178;48.730;8.990;2022-10-23T12:59:25;22.60;99.90
6291;DHT22;3178;48.730;8.990;2022-10-23T13:01:51;23.00;99.90
6291;DHT22;3178;48.730;8.990;2022-10-23T13:04:32;23.20;99.90
6291;DHT22;3178;48.730;8.990;2022-10-23T13:07:00;23.50;99.90
6291;DHT22;3178;48.730;8.990;2022-10-23T13:09:37;23.60;99.90
6291;DHT22;3178;48.730;8.990;2022-10-23T13:12:05;23.80;99.90
6291;DHT22;3178;48.730;8.990;2022-10-23T13:14:39;24.10;99.90
6291;DHT22;3178;48.730;8.990;2022-10-23T13:17:07;24.30;99.90
6291;DHT22;3178;48.730;8.990;2022-10-23T13:19:33;24.60;99.90
6291;DHT22;3178;48.730;8.990;2022-10-23T13:22:00;24.70;99.90
6291;DHT22;3178;48.730;8.990;2022-10-23T13:24:28;24.80;99.90
6291;DHT22;3178;48.730;8.990;2022-10-23T13:26:54;24.90;99.90
6291;DHT22;3178;48.730;8.990;2022-10-23T13:29:25;24.60;99.90
6291;DHT22;3178;48.730;8.990;2022-10-23T13:31:51;24.50;99.90
6291;DHT22;3178;48.730;8.990;2022-10-23T13:34:25;24.40;99.90
6291;DHT22;3178;48.730;8.990;2022-10-23T13:37:21;24.30;99.90
6291;DHT22;3178;48.730;8.990;2022-10-23T13:40:05;24.20;99.90
6291;DHT22;3178;48.730;8.990;2022-10-23T13:42:33;24.00;99.90
6291;DHT22;3178;48.730;8.990;2022-10-23T13:44:59;23.70;99.90
6291;DHT22;3178;48.730;8.990;2022-10-23T13:47:25;23.40;99.90
6291;DHT22;3178;48.730;8.990;2022-10-23T13:49:50;23.20;99.90
6291;DHT22;3178;48.730;8.990;2022-10-23T13:52:19;23.00;99.90
6291;DHT22;3178;48.730;8.990;2022-10-23T13:54:46;22.80;99.90
6291;DHT22;3178;48.730;8.990;2022-10-23T13:57:14;22.70;99.90
6291;DHT22;3178;48.730;8.990;2022-10-23T13:59:40;22.60;99.90
6291;DHT22;3178;48.730;8.990;2022-10-23T14:02:19;22.30;99.90
6291;DHT22;3178;48.730;8.990;2022-10-23T14:04:46;22.10;99.90
6291;DHT22;3178;48.730;8.990;2022-10-23T14:07:12;22.00;99.90
6291;DHT22;3178;48.730;8.990;2022-10-23T14:09:37;21.80;99.90
6291;DHT22;3178;48.730;8.990;2022-10-23T14:12:03;21.70;99.90
6291;DHT22;3178;48.730;8.990;2022-10-23T14:14:29;21.60;99.90
6291;DHT22;3178;48.730;8.990;2022-10-23T14:16:54;21.50;99.90
6291;DHT22;3178;48.730;8.990;2022-10-23T14:19:20;21.40;99.90
6291;DHT22;3178;48.730;8.990;2022-10-23T14:21:46;21.30;99.90
6291;DHT22;3178;48.730;8.990;2022-10-23T14:24:11;21.20;99.90
6291;DHT22;3178;48.730;8.990;2022-10-23T14:26:37;21.10;99.90
6291;DHT22;3178;48.730;8.990;2022-10-23T14:29:02;21.10;99.90
6291;DHT22;3178;48.730;8.990;2022-10-23T14:31:28;21.00;99.90
6291;DHT22;3178;48.730;8.990;2022-10-23T14:33:57;20.90;99.90
6291;DHT22;3178;48.730;8.990;2022-10-23T14:36:25;20.90;99.90
6291;DHT22;3178;48.730;8.990;2022-10-23T14:38:58;20.90;99.90
6291;DHT22;3178;48.730;8.990;2022-10-23T14:41:26;20.80;99.90
6291;DHT22;3178;48.730;8.990;2022-10-23T14:43:53;20.70;99.90
6291;DHT22;3178;48.730;8.990;2022-10-23T14:46:21;20.70;99.90
6291;DHT22;3178;48.730;8.990;2022-10-23T14:48:47;20.70;99.90
6291;DHT22;3178;48.730;8.990;2022-10-23T14:51:19;20.60;99.90
6291;DHT22;3178;48.730;8.990;2022-10-23T14:53:45;20.50;99.90
6291;DHT22;3178;48.730;8.990;2022-10-23T14:56:12;20.40;99.90
6291;DHT22;3178;48.730;8.990;2022-10-23T14:58:37;20.40;99.90
6291;DHT22;3178;48.730;8.990;2022-10-23T15:01:03;20.30;99.90
6291;DHT22;3178;48.730;8.990;2022-10-23T15:03:29;20.30;99.90
6291;DHT22;3178;48.730;8.990;2022-10-23T15:05:54;20.20;99.90
6291;DHT22;3178;48.730;8.990;2022-10-23T15:08:21;20.20;99.90
6291;DHT22;3178;48.730;8.990;2022-10-23T15:10:47;20.10;99.90
6291;DHT22;3178;48.730;8.990;2022-10-23T15:13:13;20.10;99.90
6291;DHT22;3178;48.730;8.990;2022-10-23T15:15:39;20.10;99.90
6291;DHT22;3178;48.730;8.990;2022-10-23T15:18:04;20.10;99.90
6291;DHT22;3178;48.730;8.990;2022-10-23T15:20:30;20.00;99.90
6291;DHT22;3178;48.730;8.990;2022-10-23T15:22:56;20.00;99.90
6291;DHT22;3178;48.730;8.990;2022-10-23T15:25:21;19.90;99.90
6291;DHT22;3178;48.730;8.990;2022-10-23T15:27:47;20.00;99.90
6291;DHT22;3178;48.730;8.990;2022-10-23T15:30:13;20.00;99.90
6291;DHT22;3178;48.730;8.990;2022-10-23T15:32:39;20.00;99.90
6291;DHT22;3178;48.730;8.990;2022-10-23T15:35:05;20.00;99.90
6291;DHT22;3178;48.730;8.990;2022-10-23T15:37:31;19.90;99.90
6291;DHT22;3178;48.730;8.990;2022-10-23T15:39:57;20.00;99.90
6291;DHT22;3178;48.730;8.990;2022-10-23T15:42:23;19.90;99.90
6291;DHT22;3178;48.730;8.990;2022-10-23T15:44:48;19.80;99.90
6291;DHT22;3178;48.730;8.990;2022-10-23T15:47:14;19.70;99.90
6291;DHT22;3178;48.730;8.990;2022-10-23T15:49:40;19.60;99.90
6291;DHT22;3178;48.730;8.990;2022-10-23T15:52:06;19.60;99.90
6291;DHT22;3178;48.730;8.990;2022-10-23T15:54:33;19.60;99.90
6291;DHT22;3178;48.730;8.990;2022-10-23T15:57:00;19.70;99.90
6291;DHT22;3178;48.730;8.990;2022-10-23T15:59:26;19.50;99.90
6291;DHT22;3178;48.730;8.990;2022-10-23T16:01:52;19.50;99.90
6291;DHT22;3178;48.730;8.990;2022-10-23T16:04:19;19.40;99.90
6291;DHT22;3178;48.730;8.990;2022-10-23T16:06:45;19.20;99.90
6291;DHT22;3178;48.730;8.990;2022-10-23T16:09:11;19.30;99.90
6291;DHT22;3178;48.730;8.990;2022-10-23T16:11:38;19.10;99.90
6291;DHT22;3178;48.730;8.990;2022-10-23T16:14:04;19.10;99.90
6291;DHT22;3178;48.730;8.990;2022-10-23T16:16:31;19.10;99.90
6291;DHT22;3178;48.730;8.990;2022-10-23T16:18:58;18.90;99.90
6291;DHT22;3178;48.730;8.990;2022-10-23T16:21:27;18.80;99.90
6291;DHT22;3178;48.730;8.990;2022-10-23T16:23:54;18.70;99.90
6291;DHT22;3178;48.730;8.990;2022-10-23T16:26:20;18.60;99.90
6291;DHT22;3178;48.730;8.990;2022-10-23T16:28:47;18.60;99.90
6291;DHT22;3178;48.730;8.990;2022-10-23T16:31:17;18.70;99.90
6291;DHT22;3178;48.730;8.990;2022-10-23T16:33:44;18.60;99.90
6291;DHT22;3178;48.730;8.990;2022-10-23T16:36:10;18.70;99.90
6291;DHT22;3178;48.730;8.990;2022-10-23T16:38:36;18.70;99.90
6291;DHT22;3178;48.730;8.990;2022-10-23T16:41:02;18.50;99.90
6291;DHT22;3178;48.730;8.990;2022-10-23T16:43:27;18.50;99.90
6291;DHT22;3178;48.730;8.990;2022-10-23T16:48:30;18.50;99.90
6291;DHT22;3178;48.730;8.990;2022-10-23T16:50:55;18.50;99.90
6291;DHT22;3178;48.730;8.990;2022-10-23T16:53:21;18.40;99.90
6291;DHT22;3178;48.730;8.990;2022-10-23T16:55:48;18.40;99.90
6291;DHT22;3178;48.730;8.990;2022-10-23T16:58:14;18.50;99.90
6291;DHT22;3178;48.730;8.990;2022-10-23T17:00:39;18.40;99.90
6291;DHT22;3178;48.730;8.990;2022-10-23T17:03:05;18.40;99.90
6291;DHT22;3178;48.730;8.990;2022-10-23T17:05:34;18.40;99.90
6291;DHT22;3178;48.730;8.990;2022-10-23T17:08:00;18.50;99.90
6291;DHT22;3178;48.730;8.990;2022-10-23T17:10:26;18.30;99.90
6291;DHT22;3178;48.730;8.990;2022-10-23T17:12:51;18.30;99.90
6291;DHT22;3178;48.730;8.990;2022-10-23T17:15:17;18.20;99.90
6291;DHT22;3178;48.730;8.990;2022-10-23T17:17:45;18.30;99.90
6291;DHT22;3178;48.730;8.990;2022-10-23T17:20:10;18.10;99.90
6291;DHT22;3178;48.730;8.990;2022-10-23T17:22:36;18.10;99.90
6291;DHT22;3178;48.730;8.990;2022-10-23T17:25:04;18.10;99.90
6291;DHT22;3178;48.730;8.990;2022-10-23T17:27:29;18.00;99.90
6291;DHT22;3178;48.730;8.990;2022-10-23T17:29:55;18.00;99.90
6291;DHT22;3178;48.730;8.990;2022-10-23T17:32:21;18.00;99.90
6291;DHT22;3178;48.730;8.990;2022-10-23T17:34:46;18.00;99.90
6291;DHT22;3178;48.730;8.990;2022-10-23T17:37:12;17.90;99.90
6291;DHT22;3178;48.730;8.990;2022-10-23T17:39:39;17.80;99.90
6291;DHT22;3178;48.730;8.990;2022-10-23T17:42:05;17.90;99.90
6291;DHT22;3178;48.730;8.990;2022-10-23T17:44:30;17.80;99.90
6291;DHT22;3178;48.730;8.990;2022-10-23T17:46:56;17.70;99.90
6291;DHT22;3178;48.730;8.990;2022-10-23T17:49:22;17.80;99.90
6291;DHT22;3178;48.730;8.990;2022-10-23T17:51:51;17.60;99.90
6291;DHT22;3178;48.730;8.990;2022-10-23T17:54:17;17.60;99.90
6291;DHT22;3178;48.730;8.990;2022-10-23T17:56:42;17.60;99.90
6291;DHT22;3178;48.730;8.990;2022-10-23T17:59:11;17.50;99.90
6291;DHT22;3178;48.730;8.990;2022-10-23T18:01:38;17.50;99.90
6291;DHT22;3178;48.730;8.990;2022-10-23T18:04:05;17.50;99.90
6291;DHT22;3178;48.730;8.990;2022-10-23T18:06:39;17.50;99.90